createdAt,value
2022-12-25T00:00:21.010Z,25.27
2022-12-25T00:02:52.894Z,29.47
2022-12-25T00:05:24.373Z,33.27
2022-12-25T00:07:55.722Z,33.23
2022-12-25T00:10:26.988Z,34.30
2022-12-25T00:12:58.256Z,27.00
2022-12-25T00:15:29.529Z,32.13
2022-12-25T00:18:00.797Z,23.50
2022-12-25T00:20:32.065Z,28.67
2022-12-25T00:23:03.336Z,33.47
2022-12-25T00:25:34.649Z,41.10
2022-12-25T00:28:05.934Z,29.37
2022-12-25T00:30:40.830Z,48.20
2022-12-25T00:33:12.105Z,42.53
2022-12-25T00:35:43.395Z,45.80
2022-12-25T00:38:14.774Z,36.77
2022-12-25T00:40:46.033Z,36.57
2022-12-25T00:43:17.347Z,27.97
2022-12-25T00:46:01.394Z,36.53
2022-12-25T00:48:33.584Z,34.00
2022-12-25T00:51:08.036Z,41.47
2022-12-25T00:53:39.377Z,35.87
2022-12-25T00:56:10.712Z,30.90
2022-12-25T00:58:42.032Z,37.93
2022-12-25T01:01:13.627Z,37.70
2022-12-25T01:03:45.131Z,35.83
2022-12-25T01:06:16.406Z,38.90
2022-12-25T01:09:06.488Z,43.57
2022-12-25T01:11:37.891Z,51.70
2022-12-25T01:14:09.939Z,36.97
2022-12-25T01:16:41.345Z,44.43
2022-12-25T01:19:13.042Z,37.83
2022-12-25T01:21:44.420Z,43.30
2022-12-25T01:24:15.697Z,47.00
2022-12-25T01:26:47.052Z,42.27
2022-12-25T01:29:18.310Z,59.63
2022-12-25T01:31:49.614Z,37.80
2022-12-25T01:34:21.003Z,42.70
2022-12-25T01:36:52.300Z,37.63
2022-12-25T01:39:23.693Z,37.03
2022-12-25T01:41:56.507Z,37.67
2022-12-25T01:44:36.947Z,37.03
2022-12-25T01:47:09.319Z,44.47
2022-12-25T01:49:44.056Z,31.57
2022-12-25T01:52:24.567Z,38.70
2022-12-25T01:55:00.140Z,37.13
2022-12-25T01:57:35.919Z,35.78
2022-12-25T02:00:08.446Z,35.35
2022-12-25T02:02:41.239Z,37.73
2022-12-25T02:05:21.177Z,41.63
2022-12-25T02:07:53.551Z,40.10
2022-12-25T02:10:25.190Z,54.67
2022-12-25T02:12:56.626Z,34.93
2022-12-25T02:15:38.269Z,55.57
2022-12-25T02:18:25.117Z,44.40
2022-12-25T02:23:56.928Z,46.23
2022-12-25T02:26:58.184Z,39.97
2022-12-25T02:29:42.460Z,33.80
2022-12-25T02:32:30.961Z,35.87
2022-12-25T02:35:10.882Z,31.57
2022-12-25T02:37:52.300Z,36.47
2022-12-25T02:40:49.885Z,36.70
2022-12-25T02:43:46.298Z,41.20
2022-12-25T02:46:39.860Z,43.75
2022-12-25T02:49:37.883Z,38.63
2022-12-25T02:52:34.084Z,42.73
2022-12-25T02:55:30.641Z,43.17
2022-12-25T02:58:27.351Z,45.95
2022-12-25T03:01:25.520Z,43.58
2022-12-25T03:04:20.711Z,42.53
2022-12-25T03:07:07.430Z,39.77
2022-12-25T03:10:01.408Z,41.42
2022-12-25T03:12:35.857Z,44.63
2022-12-25T03:15:29.217Z,39.87
2022-12-25T03:18:04.542Z,42.33
2022-12-25T03:20:56.477Z,48.33
2022-12-25T03:23:53.030Z,36.87
2022-12-25T03:26:46.080Z,43.45
2022-12-25T03:29:37.638Z,45.20
2022-12-25T03:32:26.945Z,34.63
2022-12-25T03:35:24.061Z,41.30
2022-12-25T03:38:29.807Z,38.20
2022-12-25T03:41:33.427Z,39.83
2022-12-25T03:44:44.199Z,32.87
2022-12-25T03:48:08.574Z,26.90
2022-12-25T03:51:12.492Z,29.27
2022-12-25T03:54:06.708Z,31.70
2022-12-25T03:56:57.588Z,29.87
2022-12-25T03:59:47.694Z,33.57
2022-12-25T04:02:37.985Z,36.20
2022-12-25T04:05:28.291Z,28.90
2022-12-25T04:08:18.078Z,27.03
2022-12-25T04:11:07.837Z,37.13
2022-12-25T04:13:57.608Z,30.73
2022-12-25T04:16:47.699Z,34.10
2022-12-25T04:19:37.622Z,33.30
2022-12-25T04:22:27.570Z,37.20
2022-12-25T04:25:17.460Z,30.00
2022-12-25T04:28:07.312Z,25.77
2022-12-25T04:30:57.356Z,30.73
2022-12-25T04:33:47.337Z,24.77
2022-12-25T04:36:18.772Z,28.73
2022-12-25T04:38:50.087Z,24.57
2022-12-25T04:41:21.372Z,25.60
2022-12-25T04:43:52.642Z,24.73
2022-12-25T04:46:23.985Z,26.63
2022-12-25T04:48:55.304Z,20.83
2022-12-25T04:51:26.788Z,31.63
2022-12-25T04:53:58.067Z,23.17
2022-12-25T04:56:29.341Z,29.97
2022-12-25T04:59:00.673Z,31.60
2022-12-25T05:01:32.298Z,34.37
2022-12-25T05:04:03.794Z,30.33
2022-12-25T05:06:35.159Z,31.73
2022-12-25T05:09:06.768Z,25.03
2022-12-25T05:11:38.165Z,23.50
2022-12-25T05:14:09.420Z,26.93
2022-12-25T05:16:40.971Z,20.67
2022-12-25T05:19:12.227Z,29.67
2022-12-25T05:21:43.487Z,26.70
2022-12-25T05:24:14.731Z,25.23
2022-12-25T05:26:46.155Z,22.10
2022-12-25T05:29:17.398Z,26.47
2022-12-25T05:31:48.814Z,26.77
2022-12-25T05:34:20.104Z,28.13
2022-12-25T05:36:51.440Z,33.23
2022-12-25T05:39:23.319Z,30.83
2022-12-25T05:41:54.617Z,27.93
2022-12-25T05:44:25.913Z,32.17
2022-12-25T05:46:57.246Z,21.80
2022-12-25T05:49:28.553Z,30.87
2022-12-25T05:51:59.800Z,25.77
2022-12-25T05:54:31.114Z,18.27
2022-12-25T05:57:02.575Z,25.43
2022-12-25T05:59:33.985Z,22.27
2022-12-25T06:02:05.332Z,24.70
2022-12-25T06:04:36.660Z,26.07
2022-12-25T06:07:07.932Z,26.43
2022-12-25T06:09:39.447Z,32.67
2022-12-25T06:12:10.807Z,35.50
2022-12-25T06:14:42.187Z,22.70
2022-12-25T06:17:13.658Z,22.47
2022-12-25T06:19:45.114Z,29.93
2022-12-25T06:22:16.405Z,27.17
2022-12-25T06:24:47.774Z,31.17
2022-12-25T06:27:19.070Z,29.73
2022-12-25T06:29:50.425Z,29.37
2022-12-25T06:32:21.682Z,31.83
2022-12-25T06:34:53.010Z,25.97
2022-12-25T06:37:24.275Z,15.93
2022-12-25T06:39:55.676Z,24.43
2022-12-25T06:42:26.956Z,24.13
2022-12-25T06:44:58.215Z,32.53
2022-12-25T06:47:29.504Z,36.27
2022-12-25T06:50:00.909Z,21.70
2022-12-25T06:52:33.231Z,25.20
2022-12-25T06:55:04.907Z,23.13
2022-12-25T06:57:36.367Z,24.90
2022-12-25T07:00:08.462Z,29.83
2022-12-25T07:02:47.053Z,30.83
2022-12-25T07:05:18.665Z,30.80
2022-12-25T07:07:49.961Z,20.30
2022-12-25T07:10:21.255Z,29.70
2022-12-25T07:12:52.539Z,25.93
2022-12-25T07:15:23.825Z,20.27
2022-12-25T07:17:55.141Z,24.37
2022-12-25T07:20:26.810Z,27.40
2022-12-25T07:22:58.103Z,26.00
2022-12-25T07:25:35.286Z,23.03
2022-12-25T07:28:08.592Z,20.70
2022-12-25T07:30:39.875Z,18.53
2022-12-25T07:33:11.134Z,25.87
2022-12-25T07:35:43.038Z,20.80
2022-12-25T07:38:14.355Z,24.10
2022-12-25T07:40:46.421Z,19.90
2022-12-25T07:43:17.857Z,20.47
2022-12-25T07:45:57.748Z,23.10
2022-12-25T07:48:29.605Z,23.63
2022-12-25T07:51:06.434Z,28.13
2022-12-25T07:53:38.779Z,21.80
2022-12-25T07:56:19.185Z,21.47
2022-12-25T07:58:50.486Z,23.60
2022-12-25T08:01:24.725Z,19.97
2022-12-25T08:03:58.681Z,15.77
2022-12-25T08:06:32.864Z,23.40
2022-12-25T08:09:09.954Z,30.90
2022-12-25T08:11:45.594Z,21.87
2022-12-25T08:14:16.873Z,20.92
2022-12-25T08:16:48.178Z,21.20
2022-12-25T08:19:19.501Z,23.80
2022-12-25T08:21:50.811Z,30.17
2022-12-25T08:24:22.629Z,17.47
2022-12-25T08:26:53.893Z,21.07
2022-12-25T08:29:25.297Z,21.33
2022-12-25T08:31:56.775Z,20.27
2022-12-25T08:34:28.150Z,18.53
2022-12-25T08:36:59.444Z,16.47
2022-12-25T08:39:30.721Z,20.93
2022-12-25T08:42:02.029Z,18.20
2022-12-25T08:44:33.326Z,22.17
2022-12-25T08:47:04.739Z,15.40
2022-12-25T08:49:36.058Z,13.10
2022-12-25T08:52:07.753Z,16.63
2022-12-25T08:54:39.071Z,19.00
2022-12-25T08:57:10.364Z,17.97
2022-12-25T08:59:41.655Z,19.10
2022-12-25T09:02:13.136Z,16.20
2022-12-25T09:04:46.844Z,16.60
2022-12-25T09:07:18.154Z,19.77
2022-12-25T09:09:49.408Z,14.03
2022-12-25T09:12:21.088Z,19.97
2022-12-25T09:14:52.394Z,13.90
2022-12-25T09:17:23.647Z,15.90
2022-12-25T09:19:54.913Z,13.40
2022-12-25T09:22:26.278Z,12.60
2022-12-25T09:24:57.570Z,15.50
2022-12-25T09:27:28.837Z,15.90
2022-12-25T09:30:00.110Z,13.73
2022-12-25T09:32:31.440Z,14.33
2022-12-25T09:35:02.736Z,14.37
2022-12-25T09:37:34.342Z,13.47
2022-12-25T09:40:07.158Z,17.30
2022-12-25T09:42:38.551Z,18.77
2022-12-25T09:45:14.807Z,20.97
2022-12-25T09:50:27.242Z,12.47
2022-12-25T09:53:14.733Z,13.40
2022-12-25T09:56:18.332Z,20.57
2022-12-25T09:58:49.591Z,18.67
2022-12-25T10:01:41.025Z,17.77
2022-12-25T10:04:40.758Z,16.43
2022-12-25T10:07:36.939Z,16.83
2022-12-25T10:10:32.515Z,15.60
2022-12-25T10:13:11.391Z,12.07
2022-12-25T10:16:14.339Z,12.33
2022-12-25T10:19:10.222Z,11.03
2022-12-25T10:21:41.991Z,13.23
2022-12-25T10:24:33.275Z,16.30
2022-12-25T10:27:14.610Z,17.13
2022-12-25T10:29:51.982Z,15.87
2022-12-25T10:32:23.374Z,17.27
2022-12-25T10:34:54.716Z,15.23
2022-12-25T10:37:26.113Z,12.20
2022-12-25T10:39:57.449Z,11.33
2022-12-25T10:42:42.318Z,13.50
2022-12-25T10:45:13.661Z,12.80
2022-12-25T10:47:45.069Z,13.80
2022-12-25T10:50:25.496Z,15.37
2022-12-25T10:53:04.768Z,13.90
2022-12-25T10:55:36.039Z,11.43
2022-12-25T10:58:07.287Z,14.77
2022-12-25T11:00:38.664Z,18.23
2022-12-25T11:03:25.180Z,10.33
2022-12-25T11:05:57.193Z,9.93
2022-12-25T11:08:31.071Z,9.77
2022-12-25T11:11:08.092Z,8.53
2022-12-25T11:13:47.622Z,9.37
2022-12-25T11:16:28.667Z,10.47
2022-12-25T11:19:00.323Z,10.87
2022-12-25T11:21:34.067Z,13.63
2022-12-25T11:24:17.554Z,12.73
2022-12-25T11:26:54.347Z,13.07
2022-12-25T11:29:46.411Z,10.97
2022-12-25T11:32:27.777Z,8.80
2022-12-25T11:35:01.480Z,11.63
2022-12-25T11:37:40.427Z,14.63
2022-12-25T11:40:17.330Z,16.70
2022-12-25T11:42:54.764Z,17.83
2022-12-25T11:45:32.023Z,11.63
2022-12-25T11:48:16.859Z,12.40
2022-12-25T11:50:54.389Z,12.70
2022-12-25T11:53:34.929Z,13.37
2022-12-25T11:56:10.137Z,8.47
2022-12-25T11:58:49.029Z,11.00
2022-12-25T12:01:29.014Z,10.33
2022-12-25T12:04:02.990Z,9.67
2022-12-25T12:06:40.121Z,8.87
2022-12-25T12:09:29.969Z,19.30
2022-12-25T12:12:10.194Z,11.80
2022-12-25T12:15:07.633Z,13.90
2022-12-25T12:17:38.903Z,13.63
2022-12-25T12:20:28.240Z,9.50
2022-12-25T12:23:01.575Z,12.23
2022-12-25T12:25:39.691Z,12.13
2022-12-25T12:28:22.370Z,16.47
2022-12-25T12:31:20.073Z,10.07
2022-12-25T12:33:58.129Z,10.73
2022-12-25T12:36:36.121Z,11.97
2022-12-25T12:39:22.750Z,10.73
2022-12-25T12:41:54.104Z,9.95
2022-12-25T12:44:31.010Z,11.83
2022-12-25T12:47:02.447Z,11.18
2022-12-25T12:49:33.963Z,14.90
2022-12-25T12:52:36.013Z,11.67
2022-12-25T12:55:13.009Z,9.27
2022-12-25T12:57:44.389Z,10.43
2022-12-25T13:00:19.467Z,11.53
2022-12-25T13:03:32.803Z,9.60
2022-12-25T13:06:24.480Z,12.53
2022-12-25T13:09:26.308Z,10.90
2022-12-25T13:11:57.657Z,8.33
2022-12-25T13:14:28.966Z,15.57
2022-12-25T13:17:00.587Z,11.20
2022-12-25T13:19:32.002Z,15.93
2022-12-25T13:22:06.224Z,10.63
2022-12-25T13:24:38.384Z,14.10
2022-12-25T13:27:27.475Z,14.10
2022-12-25T13:29:59.733Z,7.80
2022-12-25T13:32:33.247Z,13.53
2022-12-25T13:35:05.378Z,9.30
2022-12-25T13:37:37.062Z,13.77
2022-12-25T13:40:23.086Z,11.27
2022-12-25T13:42:59.240Z,13.70
2022-12-25T13:45:31.485Z,13.68
2022-12-25T13:48:14.967Z,13.17
2022-12-25T13:50:57.464Z,16.67
2022-12-25T13:53:28.918Z,14.00
2022-12-25T13:56:00.240Z,12.37
2022-12-25T13:58:35.044Z,14.40
2022-12-25T14:01:08.485Z,11.98
2022-12-25T14:03:42.602Z,12.70
2022-12-25T14:06:23.891Z,17.10
2022-12-25T14:08:57.702Z,16.60
2022-12-25T14:11:31.048Z,12.90
2022-12-25T14:14:07.791Z,11.70
2022-12-25T14:16:43.262Z,14.20
2022-12-25T14:19:29.549Z,12.60
2022-12-25T14:22:15.998Z,7.15
2022-12-25T14:24:47.741Z,18.02
2022-12-25T14:27:27.965Z,15.83
2022-12-25T14:30:01.237Z,19.57
2022-12-25T14:32:45.389Z,20.73
2022-12-25T14:35:23.133Z,23.87
2022-12-25T14:37:59.946Z,15.67
2022-12-25T14:40:32.598Z,12.73
2022-12-25T14:43:05.917Z,14.53
2022-12-25T14:45:40.393Z,9.97
2022-12-25T14:48:24.423Z,11.47
2022-12-25T14:51:16.931Z,15.83
2022-12-25T14:53:54.723Z,17.57
2022-12-25T14:56:28.288Z,12.33
2022-12-25T14:59:00.105Z,13.10
2022-12-25T15:01:35.158Z,10.80
2022-12-25T15:04:10.694Z,11.63
2022-12-25T15:06:56.767Z,20.15
2022-12-25T15:09:29.882Z,12.82
2022-12-25T15:12:01.462Z,15.57
2022-12-25T15:14:36.259Z,11.27
2022-12-25T15:17:24.204Z,8.83
2022-12-25T15:19:59.008Z,10.73
2022-12-25T15:22:47.755Z,10.37
2022-12-25T15:25:22.757Z,10.27
2022-12-25T15:27:54.230Z,9.27
2022-12-25T15:30:25.495Z,13.17
2022-12-25T15:32:56.867Z,9.63
2022-12-25T15:35:29.295Z,13.17
2022-12-25T15:38:00.566Z,13.80
2022-12-25T15:40:31.917Z,11.73
2022-12-25T15:43:11.221Z,16.27
2022-12-25T15:45:53.724Z,14.17
2022-12-25T15:48:24.982Z,15.73
2022-12-25T15:50:56.260Z,12.40
2022-12-25T15:53:27.584Z,14.40
2022-12-25T15:55:58.860Z,11.33
2022-12-25T15:58:30.127Z,17.13
2022-12-25T16:01:01.438Z,13.57
2022-12-25T16:03:32.793Z,15.03
2022-12-25T16:06:04.346Z,14.83
2022-12-25T16:08:35.589Z,18.00
2022-12-25T16:11:07.769Z,18.70
2022-12-25T16:13:39.131Z,15.20
2022-12-25T16:16:10.477Z,15.10
2022-12-25T16:18:47.066Z,15.87
2022-12-25T16:21:20.968Z,13.37
2022-12-25T16:23:52.270Z,14.97
2022-12-25T16:26:23.542Z,13.60
2022-12-25T16:28:54.782Z,12.17
2022-12-25T16:31:26.112Z,11.93
2022-12-25T16:33:57.457Z,11.93
2022-12-25T16:36:28.771Z,14.83
2022-12-25T16:39:00.093Z,13.23
2022-12-25T16:41:31.449Z,13.33
2022-12-25T16:44:08.942Z,9.07
2022-12-25T16:46:40.537Z,10.27
2022-12-25T16:49:11.885Z,9.90
2022-12-25T16:51:43.164Z,7.80
2022-12-25T16:54:14.512Z,11.10
2022-12-25T16:56:45.788Z,11.70
2022-12-25T16:59:17.188Z,7.97
2022-12-25T17:01:48.586Z,7.93
2022-12-25T17:04:19.905Z,13.00
2022-12-25T17:06:51.182Z,13.97
2022-12-25T17:09:22.516Z,10.97
2022-12-25T17:11:53.785Z,10.10
2022-12-25T17:14:25.211Z,12.50
2022-12-25T17:16:56.593Z,9.60
2022-12-25T17:19:28.125Z,10.47
2022-12-25T17:21:59.789Z,9.80
2022-12-25T17:24:31.169Z,7.70
2022-12-25T17:27:03.514Z,9.57
2022-12-25T17:29:43.716Z,7.63
2022-12-25T17:32:15.226Z,8.97
2022-12-25T17:34:46.925Z,9.87
2022-12-25T17:37:18.264Z,7.97
2022-12-25T17:39:49.514Z,8.40
2022-12-25T17:42:20.775Z,9.77
2022-12-25T17:44:52.038Z,6.33
2022-12-25T17:47:23.307Z,7.20
2022-12-25T17:49:54.630Z,9.67
2022-12-25T17:52:25.932Z,7.57
2022-12-25T17:54:57.183Z,10.17
2022-12-25T17:57:28.451Z,7.00
2022-12-25T17:59:59.765Z,7.30
2022-12-25T18:02:31.211Z,8.20
2022-12-25T18:05:02.752Z,7.73
2022-12-25T18:07:34.006Z,10.87
2022-12-25T18:10:06.018Z,8.00
2022-12-25T18:12:37.314Z,9.43
2022-12-25T18:15:09.305Z,9.33
2022-12-25T18:17:40.649Z,11.80
2022-12-25T18:20:12.621Z,9.97
2022-12-25T18:22:43.867Z,10.93
2022-12-25T18:25:15.202Z,10.03
2022-12-25T18:27:46.545Z,12.60
2022-12-25T18:30:17.825Z,14.17
2022-12-25T18:32:49.120Z,13.80
2022-12-25T18:35:20.703Z,14.13
2022-12-25T18:37:52.006Z,14.00
2022-12-25T18:40:23.326Z,16.00
2022-12-25T18:43:01.127Z,15.67
2022-12-25T18:45:34.413Z,17.27
2022-12-25T18:48:06.400Z,16.47
2022-12-25T18:50:39.951Z,14.13
2022-12-25T18:53:11.249Z,12.53
2022-12-25T18:55:42.601Z,14.60
2022-12-25T18:58:13.880Z,14.60
2022-12-25T19:00:45.216Z,12.67
2022-12-25T19:03:16.968Z,12.43
2022-12-25T19:05:48.335Z,18.03
2022-12-25T19:08:19.615Z,12.40
2022-12-25T19:10:50.994Z,13.27
2022-12-25T19:13:22.260Z,13.63
2022-12-25T19:15:58.301Z,13.90
2022-12-25T19:18:29.880Z,10.30
2022-12-25T19:21:06.069Z,13.60
2022-12-25T19:23:37.883Z,11.52
2022-12-25T19:26:10.649Z,19.00
2022-12-25T19:28:41.951Z,17.20
2022-12-25T19:31:13.538Z,14.47
2022-12-25T19:33:44.894Z,13.43
2022-12-25T19:36:16.610Z,24.27
2022-12-25T19:38:48.078Z,20.27
2022-12-25T19:41:19.553Z,18.10
2022-12-25T19:43:52.080Z,20.53
2022-12-25T19:46:27.628Z,19.07
2022-12-25T19:49:04.009Z,21.55
2022-12-25T19:54:10.992Z,20.53
2022-12-25T19:56:43.129Z,18.90
2022-12-25T19:59:14.877Z,19.13
2022-12-25T20:01:46.376Z,22.70
2022-12-25T20:04:18.215Z,20.87
2022-12-25T20:06:49.609Z,22.73
2022-12-25T20:09:21.729Z,21.37
2022-12-25T20:11:53.210Z,26.13
2022-12-25T20:14:24.465Z,22.57
2022-12-25T20:16:55.785Z,22.07
2022-12-25T20:19:27.062Z,25.60
2022-12-25T20:21:58.692Z,29.37
2022-12-25T20:24:29.971Z,31.63
2022-12-25T20:27:01.249Z,23.97
2022-12-25T20:29:32.519Z,26.50
2022-12-25T20:32:04.037Z,22.37
2022-12-25T20:34:35.400Z,27.00
2022-12-25T20:37:06.707Z,38.33
2022-12-25T20:39:38.395Z,34.20
2022-12-25T20:42:10.028Z,28.93
2022-12-25T20:44:41.805Z,33.23
2022-12-25T20:47:13.052Z,40.93
2022-12-25T20:49:46.803Z,45.57
2022-12-25T20:52:18.093Z,35.60
2022-12-25T20:54:50.319Z,54.00
2022-12-25T20:57:21.595Z,124.13
2022-12-25T20:59:53.372Z,176.10
2022-12-25T21:02:35.851Z,78.87
2022-12-25T21:05:11.278Z,53.67
2022-12-25T21:07:42.615Z,121.63
2022-12-25T21:10:13.977Z,184.40
2022-12-25T21:12:45.249Z,134.90
2022-12-25T21:15:16.551Z,253.83
2022-12-25T21:17:47.847Z,148.10
2022-12-25T21:20:19.193Z,126.77
2022-12-25T21:22:50.462Z,150.60
2022-12-25T21:25:21.743Z,241.67
2022-12-25T21:27:52.995Z,237.83
2022-12-25T21:30:24.302Z,165.17
2022-12-25T21:33:16.983Z,43.07
2022-12-25T21:35:48.755Z,34.37
2022-12-25T21:38:20.284Z,45.83
2022-12-25T21:40:51.637Z,51.30
2022-12-25T21:43:22.875Z,49.43
2022-12-25T21:45:54.165Z,35.33
2022-12-25T21:48:25.456Z,49.70
2022-12-25T21:51:23.722Z,46.83
2022-12-25T21:53:55.233Z,46.67
2022-12-25T21:56:30.945Z,86.23
2022-12-25T21:59:04.727Z,84.45
2022-12-25T22:01:37.761Z,124.47
2022-12-25T22:04:09.575Z,191.13
2022-12-25T22:07:00.203Z,184.83
2022-12-25T22:09:31.634Z,74.40
2022-12-25T22:12:22.029Z,103.20
2022-12-25T22:14:56.260Z,85.23
2022-12-25T22:17:49.570Z,92.37
2022-12-25T22:20:30.649Z,77.37
2022-12-25T22:23:02.671Z,141.60
2022-12-25T22:25:33.968Z,99.57
2022-12-25T22:28:05.238Z,85.60
2022-12-25T22:30:36.546Z,105.20
2022-12-25T22:33:07.851Z,112.87
2022-12-25T22:35:39.095Z,104.10
2022-12-25T22:38:10.359Z,170.17
2022-12-25T22:40:41.614Z,88.73
2022-12-25T22:43:12.886Z,138.63
2022-12-25T22:45:44.159Z,99.53
2022-12-25T22:48:15.430Z,136.47
2022-12-25T22:50:46.702Z,128.77
2022-12-25T22:53:18.081Z,122.77
2022-12-25T22:55:49.664Z,193.23
2022-12-25T22:58:20.934Z,130.13
2022-12-25T23:00:52.235Z,95.33
2022-12-25T23:03:23.694Z,127.63
2022-12-25T23:05:56.748Z,111.37
2022-12-25T23:08:28.182Z,85.27
2022-12-25T23:11:04.203Z,125.57
2022-12-25T23:13:55.414Z,154.82
2022-12-25T23:16:26.816Z,138.80
2022-12-25T23:19:17.336Z,126.97
2022-12-25T23:22:07.163Z,167.00
2022-12-25T23:24:56.906Z,177.17
2022-12-25T23:27:28.211Z,152.17
2022-12-25T23:29:59.492Z,128.87
2022-12-25T23:32:30.867Z,161.30
2022-12-25T23:35:02.292Z,217.60
2022-12-25T23:37:33.686Z,180.23
2022-12-25T23:40:05.685Z,134.00
2022-12-25T23:42:37.058Z,212.10
2022-12-25T23:45:10.419Z,138.67
2022-12-25T23:47:41.694Z,94.23
2022-12-25T23:50:13.021Z,130.23
2022-12-25T23:52:44.282Z,129.93
2022-12-25T23:55:15.615Z,82.53
2022-12-25T23:57:46.881Z,126.57
